Time;durP1;ratioP1;P1;durP2;ratioP2;P2;SDS_P1;SDS_P2;PMS_P1;PMS_P2;Temp;Humidity;BMP_temperature;BMP_pressure;BME280_temperature;BME280_humidity;BME280_pressure;Samples;Min_cycle;Max_cycle;Signal;HPM_P1;HPM_P2
2022/10/26 00:00:25;;;;;;;25.45;12.90;;;;;;;;;;4988711;28;20066;-68
2022/10/26 00:03:11;;;;;;;27.20;13.15;;;;;;;;;;4987168;28;20373;-68
2022/10/26 00:05:37;;;;;;;32.45;13.10;;;;;;;;;;4986511;28;20058;-68
2022/10/26 00:08:03;;;;;;;29.52;13.50;;;;;;;;;;4987249;28;20058;-66
2022/10/26 00:10:29;;;;;;;29.55;13.63;;;;;;;;;;4989431;28;20050;-73
2022/10/26 00:12:55;;;;;;;31.52;12.70;;;;;;;;;;4986022;28;20132;-67
2022/10/26 00:15:21;;;;;;;32.35;13.50;;;;;;;;;;4985622;28;20034;-70
2022/10/26 00:17:47;;;;;;;28.08;13.13;;;;;;;;;;4984386;28;20053;-69
2022/10/26 00:20:13;;;;;;;27.08;12.77;;;;;;;;;;4985604;28;20050;-70
2022/10/26 00:22:39;;;;;;;30.02;12.13;;;;;;;;;;4985339;28;20412;-68
2022/10/26 00:25:06;;;;;;;28.30;12.38;;;;;;;;;;4987326;28;20061;-71
2022/10/26 00:27:35;;;;;;;30.08;11.48;;;;;;;;;;4979926;28;20129;-74
2022/10/26 00:30:04;;;;;;;29.63;11.68;;;;;;;;;;4987135;28;20488;-69
2022/10/26 00:32:30;;;;;;;24.50;11.45;;;;;;;;;;4982843;28;20492;-67
2022/10/26 00:34:56;;;;;;;31.10;11.00;;;;;;;;;;4982455;28;20038;-68
2022/10/26 00:37:21;;;;;;;25.25;10.63;;;;;;;;;;4986898;28;20096;-68
2022/10/26 00:39:47;;;;;;;28.67;10.57;;;;;;;;;;4984239;28;20105;-68
2022/10/26 00:42:18;;;;;;;29.73;10.98;;;;;;;;;;4985005;28;20057;-67
2022/10/26 00:44:47;;;;;;;28.73;10.63;;;;;;;;;;4986693;28;20137;-66
2022/10/26 00:47:24;;;;;;;25.88;10.20;;;;;;;;;;4987324;28;20046;-71
2022/10/26 00:49:53;;;;;;;23.67;10.18;;;;;;;;;;4988437;28;20046;-69
2022/10/26 00:52:20;;;;;;;21.77;9.77;;;;;;;;;;4985907;28;20129;-68
2022/10/26 00:54:47;;;;;;;21.00;10.27;;;;;;;;;;4980671;28;20050;-66
2022/10/26 00:57:15;;;;;;;25.20;10.32;;;;;;;;;;4989295;28;20050;-71
2022/10/26 00:59:42;;;;;;;22.58;10.38;;;;;;;;;;4986878;28;20125;-67
2022/10/26 01:02:08;;;;;;;28.25;10.55;;;;;;;;;;4987400;28;20038;-67
2022/10/26 01:04:34;;;;;;;26.50;10.32;;;;;;;;;;4980466;28;20049;-68
2022/10/26 01:07:03;;;;;;;20.83;9.73;;;;;;;;;;4986787;28;20131;-68
2022/10/26 01:09:30;;;;;;;23.40;9.90;;;;;;;;;;4987994;28;20045;-69
2022/10/26 01:11:56;;;;;;;23.15;10.35;;;;;;;;;;4987370;28;20371;-66
2022/10/26 01:14:24;;;;;;;23.05;10.82;;;;;;;;;;4992013;28;20476;-73
2022/10/26 01:17:11;;;;;;;23.40;9.65;;;;;;;;;;4970356;28;20058;-68
2022/10/26 01:20:10;;;;;;;25.10;9.77;;;;;;;;;;4985911;28;20046;-67
2022/10/26 01:22:59;;;;;;;22.58;9.88;;;;;;;;;;4989043;28;20066;-67
2022/10/26 01:25:40;;;;;;;32.47;11.38;;;;;;;;;;4985087;28;20054;-68
2022/10/26 01:28:21;;;;;;;27.80;10.50;;;;;;;;;;4987037;28;20046;-73
2022/10/26 01:30:47;;;;;;;26.17;10.02;;;;;;;;;;4990538;28;20046;-66
2022/10/26 01:33:38;;;;;;;27.45;10.52;;;;;;;;;;4987866;28;20609;-67
2022/10/26 01:36:12;;;;;;;20.20;9.90;;;;;;;;;;4989262;28;20077;-71
2022/10/26 01:38:38;;;;;;;25.10;10.70;;;;;;;;;;4989384;28;20093;-70
2022/10/26 01:41:27;;;;;;;20.58;9.80;;;;;;;;;;4989375;28;20054;-67
2022/10/26 01:43:56;;;;;;;24.58;10.02;;;;;;;;;;4988181;28;20514;-68
2022/10/26 01:46:24;;;;;;;20.85;10.32;;;;;;;;;;4985228;28;20053;-68
2022/10/26 01:48:54;;;;;;;26.90;11.20;;;;;;;;;;4987264;28;20065;-67
2022/10/26 01:51:22;;;;;;;22.95;10.77;;;;;;;;;;4985767;28;20053;-71
2022/10/26 01:53:48;;;;;;;23.25;10.30;;;;;;;;;;4989119;28;20042;-67
2022/10/26 01:56:24;;;;;;;22.35;9.90;;;;;;;;;;4967849;28;20050;-68
2022/10/26 01:59:08;;;;;;;22.40;9.77;;;;;;;;;;4986109;28;20050;-72
2022/10/26 02:01:41;;;;;;;29.63;10.18;;;;;;;;;;4982814;28;20186;-68
2022/10/26 02:04:23;;;;;;;22.05;9.75;;;;;;;;;;4984999;28;20121;-67
2022/10/26 02:06:55;;;;;;;21.95;9.50;;;;;;;;;;4984473;28;20042;-65
2022/10/26 02:09:31;;;;;;;24.98;8.98;;;;;;;;;;4986009;28;20054;-71
2022/10/26 02:11:57;;;;;;;23.27;9.60;;;;;;;;;;4986678;28;20047;-68
2022/10/26 02:14:45;;;;;;;19.95;9.25;;;;;;;;;;4987275;28;20064;-71
2022/10/26 02:17:20;;;;;;;22.50;9.82;;;;;;;;;;4988134;28;20564;-71
2022/10/26 02:19:49;;;;;;;18.65;9.20;;;;;;;;;;4987636;28;20054;-71
2022/10/26 02:22:24;;;;;;;22.00;8.90;;;;;;;;;;4982585;28;20057;-67
2022/10/26 02:24:52;;;;;;;20.48;9.30;;;;;;;;;;4985949;28;20087;-68
2022/10/26 02:27:30;;;;;;;20.17;8.82;;;;;;;;;;4980692;28;20097;-69
2022/10/26 02:29:58;;;;;;;25.02;9.55;;;;;;;;;;4986138;28;20042;-66
2022/10/26 02:32:27;;;;;;;26.50;9.25;;;;;;;;;;4986547;28;20128;-68
2022/10/26 02:34:56;;;;;;;21.38;9.35;;;;;;;;;;4987722;28;20053;-67
2022/10/26 02:37:24;;;;;;;21.17;9.27;;;;;;;;;;4981649;28;20109;-65
2022/10/26 02:39:51;;;;;;;21.67;8.50;;;;;;;;;;4986023;28;20744;-68
2022/10/26 02:42:18;;;;;;;17.30;7.80;;;;;;;;;;4985077;28;20042;-69
2022/10/26 02:44:52;;;;;;;23.25;9.27;;;;;;;;;;4974125;28;20443;-68
2022/10/26 02:47:19;;;;;;;16.52;8.13;;;;;;;;;;4985213;28;20038;-74
2022/10/26 02:49:45;;;;;;;23.17;9.18;;;;;;;;;;4986506;28;20121;-68
2022/10/26 02:52:21;;;;;;;18.17;8.55;;;;;;;;;;4968224;28;20046;-66
2022/10/26 02:54:53;;;;;;;23.83;9.25;;;;;;;;;;4984255;28;20058;-70
2022/10/26 02:57:27;;;;;;;22.75;8.93;;;;;;;;;;4986382;28;20043;-71
2022/10/26 02:59:54;;;;;;;22.67;9.73;;;;;;;;;;4987493;28;20069;-71
2022/10/26 03:02:21;;;;;;;17.77;9.20;;;;;;;;;;4988870;28;20106;-70
2022/10/26 03:04:49;;;;;;;22.63;9.45;;;;;;;;;;4984836;28;20042;-68
2022/10/26 03:07:25;;;;;;;26.92;9.73;;;;;;;;;;4989244;28;20423;-66
2022/10/26 03:09:51;;;;;;;27.33;9.02;;;;;;;;;;4984667;28;20046;-71
2022/10/26 03:12:16;;;;;;;23.17;9.60;;;;;;;;;;4984753;28;20469;-69
2022/10/26 03:14:42;;;;;;;20.63;9.60;;;;;;;;;;4985229;28;20057;-68
2022/10/26 03:17:08;;;;;;;25.65;8.95;;;;;;;;;;4981136;28;20050;-66
2022/10/26 03:19:34;;;;;;;23.05;8.68;;;;;;;;;;4983269;28;20042;-68
2022/10/26 03:22:00;;;;;;;23.58;9.43;;;;;;;;;;4984317;28;20042;-66
2022/10/26 03:24:26;;;;;;;29.92;9.93;;;;;;;;;;4984377;28;20061;-70
2022/10/26 03:26:51;;;;;;;24.25;9.85;;;;;;;;;;4980884;28;20097;-67
2022/10/26 03:29:17;;;;;;;20.73;8.40;;;;;;;;;;4984147;28;20042;-67
2022/10/26 03:31:43;;;;;;;20.65;8.90;;;;;;;;;;4986494;28;20050;-67
2022/10/26 03:34:09;;;;;;;29.20;9.05;;;;;;;;;;4986879;28;20047;-70
2022/10/26 03:36:35;;;;;;;28.63;9.27;;;;;;;;;;4986523;28;20061;-66
2022/10/26 03:39:01;;;;;;;25.80;8.75;;;;;;;;;;4991938;28;20042;-68
2022/10/26 03:41:27;;;;;;;25.20;9.02;;;;;;;;;;4989217;28;20089;-71
2022/10/26 03:43:53;;;;;;;21.13;9.73;;;;;;;;;;4989284;28;20053;-68
2022/10/26 03:46:19;;;;;;;25.80;8.95;;;;;;;;;;4988264;28;20117;-69
2022/10/26 03:48:45;;;;;;;36.78;10.18;;;;;;;;;;4989207;28;20050;-67
2022/10/26 03:51:10;;;;;;;23.88;9.25;;;;;;;;;;4986376;28;20552;-70
2022/10/26 03:53:36;;;;;;;30.38;8.85;;;;;;;;;;4988353;28;20088;-65
2022/10/26 03:56:02;;;;;;;24.40;9.35;;;;;;;;;;4989068;28;20127;-72
2022/10/26 03:58:28;;;;;;;22.92;8.70;;;;;;;;;;4990501;28;20043;-68
2022/10/26 04:00:54;;;;;;;25.02;9.07;;;;;;;;;;4988033;28;20765;-66
2022/10/26 04:03:20;;;;;;;24.58;9.52;;;;;;;;;;4990278;28;20050;-67
2022/10/26 04:05:45;;;;;;;26.13;8.90;;;;;;;;;;4987888;28;20088;-68
2022/10/26 04:08:12;;;;;;;21.80;8.65;;;;;;;;;;4972962;28;20097;-68
2022/10/26 04:10:37;;;;;;;36.65;9.15;;;;;;;;;;4988452;28;20039;-68
2022/10/26 04:13:03;;;;;;;29.45;9.23;;;;;;;;;;4972643;28;20724;-66
2022/10/26 04:15:29;;;;;;;23.77;8.40;;;;;;;;;;4989701;28;20044;-67
2022/10/26 04:18:00;;;;;;;28.38;8.80;;;;;;;;;;4988689;28;20050;-67
2022/10/26 04:20:27;;;;;;;26.50;8.98;;;;;;;;;;4988847;28;20038;-68
2022/10/26 04:23:01;;;;;;;22.58;8.05;;;;;;;;;;4988716;28;20120;-72
2022/10/26 04:25:28;;;;;;;22.45;9.05;;;;;;;;;;4983797;28;20061;-70
2022/10/26 04:27:55;;;;;;;17.70;8.10;;;;;;;;;;4980576;28;20117;-68
2022/10/26 04:30:21;;;;;;;31.00;8.60;;;;;;;;;;4987814;28;20034;-70
2022/10/26 04:32:47;;;;;;;21.73;8.40;;;;;;;;;;4988311;28;20121;-67
2022/10/26 04:35:13;;;;;;;20.13;8.00;;;;;;;;;;4988777;28;20053;-65
2022/10/26 04:37:39;;;;;;;25.70;8.60;;;;;;;;;;4987251;28;20559;-66
2022/10/26 04:40:06;;;;;;;22.48;7.88;;;;;;;;;;4987878;28;20102;-67
2022/10/26 04:42:39;;;;;;;21.23;8.75;;;;;;;;;;4990445;28;20049;-65
2022/10/26 04:45:06;;;;;;;21.30;8.57;;;;;;;;;;4972281;28;20071;-66
2022/10/26 04:47:31;;;;;;;23.83;8.05;;;;;;;;;;4988152;28;20108;-66
2022/10/26 04:49:57;;;;;;;20.20;8.13;;;;;;;;;;4991509;28;20046;-70
2022/10/26 04:52:23;;;;;;;20.55;8.25;;;;;;;;;;4987979;28;20061;-67
2022/10/26 04:54:49;;;;;;;21.02;8.10;;;;;;;;;;4992136;28;20050;-65
2022/10/26 04:57:15;;;;;;;25.42;8.52;;;;;;;;;;4991620;28;20053;-66
2022/10/26 04:59:41;;;;;;;19.48;7.93;;;;;;;;;;4989643;28;20046;-67
2022/10/26 05:02:07;;;;;;;18.60;8.05;;;;;;;;;;4991271;28;20072;-72
2022/10/26 05:04:33;;;;;;;19.15;8.48;;;;;;;;;;4988160;28;20046;-69
2022/10/26 05:06:58;;;;;;;21.23;8.10;;;;;;;;;;4986044;28;20058;-67
2022/10/26 05:09:24;;;;;;;23.77;8.75;;;;;;;;;;4990538;28;20412;-68
2022/10/26 05:11:50;;;;;;;21.15;8.63;;;;;;;;;;4991289;28;20057;-69
2022/10/26 05:14:16;;;;;;;28.40;8.50;;;;;;;;;;4980548;28;20042;-69
2022/10/26 05:16:43;;;;;;;22.50;8.30;;;;;;;;;;4985803;28;20054;-75
2022/10/26 05:19:09;;;;;;;17.23;7.53;;;;;;;;;;4988554;28;20057;-75
2022/10/26 05:21:35;;;;;;;20.55;8.98;;;;;;;;;;4990686;28;20038;-74
2022/10/26 05:24:01;;;;;;;22.95;8.70;;;;;;;;;;4991370;28;20102;-79
2022/10/26 05:26:27;;;;;;;28.10;8.43;;;;;;;;;;4988638;28;20807;-75
2022/10/26 05:28:53;;;;;;;18.83;8.23;;;;;;;;;;4990790;28;20575;-78
2022/10/26 05:31:20;;;;;;;25.73;8.10;;;;;;;;;;4986895;28;20564;-78
2022/10/26 05:33:51;;;;;;;21.50;8.30;;;;;;;;;;4995162;28;20510;-76
2022/10/26 05:36:17;;;;;;;27.00;7.63;;;;;;;;;;4988448;28;20526;-77
2022/10/26 05:38:43;;;;;;;25.15;7.68;;;;;;;;;;4999963;28;20050;-76
2022/10/26 05:41:10;;;;;;;28.33;7.97;;;;;;;;;;4998467;28;20065;-77
2022/10/26 05:43:35;;;;;;;19.45;7.30;;;;;;;;;;4996706;28;20516;-78
2022/10/26 05:46:01;;;;;;;17.70;7.68;;;;;;;;;;4992720;28;20077;-78
2022/10/26 05:48:27;;;;;;;21.77;8.18;;;;;;;;;;4991633;28;20174;-76
2022/10/26 05:50:53;;;;;;;27.90;7.43;;;;;;;;;;4987767;28;20455;-76
2022/10/26 05:53:19;;;;;;;19.02;7.00;;;;;;;;;;4981321;28;22406;-75
2022/10/26 05:55:45;;;;;;;16.83;7.25;;;;;;;;;;4982543;28;20507;-74
2022/10/26 05:58:13;;;;;;;20.98;7.45;;;;;;;;;;4985845;28;20087;-74
2022/10/26 06:01:11;;;;;;;19.70;6.97;;;;;;;;;;4986692;28;20050;-74
2022/10/26 06:03:52;;;;;;;22.85;7.10;;;;;;;;;;4979196;28;20104;-63
2022/10/26 06:06:18;;;;;;;21.23;6.80;;;;;;;;;;4983457;28;20133;-65
2022/10/26 06:08:44;;;;;;;17.88;6.85;;;;;;;;;;4985269;28;20475;-64
2022/10/26 06:11:10;;;;;;;26.95;7.30;;;;;;;;;;4985878;28;20046;-64
2022/10/26 06:13:36;;;;;;;23.80;7.78;;;;;;;;;;4986537;28;20049;-65
2022/10/26 06:16:14;;;;;;;21.58;7.28;;;;;;;;;;4984141;28;20149;-63
2022/10/26 06:19:05;;;;;;;25.15;6.72;;;;;;;;;;4985726;28;20507;-67
2022/10/26 06:21:53;;;;;;;36.70;7.95;;;;;;;;;;4968694;28;20042;-64
2022/10/26 06:24:28;;;;;;;17.67;6.20;;;;;;;;;;4986542;28;20060;-63
2022/10/26 06:27:19;;;;;;;24.35;6.47;;;;;;;;;;4986142;28;20108;-65
2022/10/26 06:29:57;;;;;;;27.80;7.28;;;;;;;;;;4985923;28;20189;-62
2022/10/26 06:32:24;;;;;;;37.63;7.57;;;;;;;;;;4985083;28;20088;-66
2022/10/26 06:34:55;;;;;;;22.35;6.97;;;;;;;;;;4988273;28;20038;-66
2022/10/26 06:37:21;;;;;;;18.05;6.50;;;;;;;;;;4983193;28;20057;-65
2022/10/26 06:39:49;;;;;;;23.85;6.03;;;;;;;;;;4980405;28;20067;-63
2022/10/26 06:42:15;;;;;;;19.25;6.00;;;;;;;;;;4984413;28;20074;-67
2022/10/26 06:44:41;;;;;;;25.52;6.50;;;;;;;;;;4983000;28;20129;-64
2022/10/26 06:47:30;;;;;;;25.52;6.85;;;;;;;;;;4988996;28;20050;-64
2022/10/26 06:50:14;;;;;;;16.80;6.18;;;;;;;;;;4986818;28;20121;-65
2022/10/26 06:52:54;;;;;;;25.95;6.40;;;;;;;;;;4986714;28;20048;-66
2022/10/26 06:55:21;;;;;;;35.92;7.40;;;;;;;;;;4987119;28;20045;-65
2022/10/26 06:57:48;;;;;;;24.85;6.55;;;;;;;;;;4988343;28;20077;-65
2022/10/26 07:00:20;;;;;;;31.88;8.48;;;;;;;;;;4986080;28;20121;-64
2022/10/26 07:02:49;;;;;;;36.00;7.45;;;;;;;;;;4981698;28;20163;-71
2022/10/26 07:05:15;;;;;;;29.33;6.88;;;;;;;;;;4983384;28;20039;-70
2022/10/26 07:07:45;;;;;;;30.73;7.22;;;;;;;;;;4986909;28;20201;-70
2022/10/26 07:10:12;;;;;;;26.10;7.53;;;;;;;;;;4988330;28;20103;-71
2022/10/26 07:12:38;;;;;;;36.72;6.60;;;;;;;;;;4991313;28;20062;-70
2022/10/26 07:15:07;;;;;;;32.10;6.78;;;;;;;;;;4974636;28;20038;-70
2022/10/26 07:17:47;;;;;;;30.65;6.05;;;;;;;;;;4989094;28;20050;-70
2022/10/26 07:20:15;;;;;;;30.65;6.63;;;;;;;;;;4988908;28;20058;-69
2022/10/26 07:22:44;;;;;;;27.92;7.70;;;;;;;;;;4989641;28;20042;-67
2022/10/26 07:25:11;;;;;;;30.33;6.88;;;;;;;;;;4988709;28;20121;-69
2022/10/26 07:27:37;;;;;;;29.02;7.50;;;;;;;;;;4989006;28;20129;-67
2022/10/26 07:30:04;;;;;;;20.63;6.78;;;;;;;;;;4992416;28;20129;-70
2022/10/26 07:32:30;;;;;;;25.23;7.38;;;;;;;;;;4990801;28;20060;-69
2022/10/26 07:34:56;;;;;;;34.55;7.47;;;;;;;;;;4985307;28;20715;-69
2022/10/26 07:37:22;;;;;;;41.30;7.90;;;;;;;;;;4986719;28;20065;-68
2022/10/26 07:39:47;;;;;;;35.17;10.98;;;;;;;;;;4992266;28;20100;-68
2022/10/26 07:42:15;;;;;;;38.25;12.40;;;;;;;;;;4989582;28;20496;-67
2022/10/26 07:44:40;;;;;;;36.63;12.85;;;;;;;;;;4986398;28;20441;-62
2022/10/26 07:47:06;;;;;;;29.25;12.15;;;;;;;;;;4984958;28;20065;-70
2022/10/26 07:49:32;;;;;;;38.25;11.32;;;;;;;;;;4989717;28;20054;-64
2022/10/26 07:51:58;;;;;;;38.72;12.43;;;;;;;;;;4989671;28;20089;-64
2022/10/26 07:54:24;;;;;;;33.20;11.10;;;;;;;;;;4989141;28;20467;-66
2022/10/26 07:56:50;;;;;;;32.83;10.75;;;;;;;;;;4971307;28;20108;-65
2022/10/26 07:59:18;;;;;;;32.03;9.68;;;;;;;;;;4994675;28;20141;-64
2022/10/26 08:01:45;;;;;;;34.55;9.73;;;;;;;;;;4989779;28;20053;-65
2022/10/26 08:04:10;;;;;;;35.22;8.57;;;;;;;;;;4993063;28;20502;-66
2022/10/26 08:06:36;;;;;;;26.08;10.15;;;;;;;;;;4992321;28;20137;-65
2022/10/26 08:09:02;;;;;;;40.45;11.30;;;;;;;;;;4993240;28;20042;-65
2022/10/26 08:11:28;;;;;;;42.03;11.02;;;;;;;;;;4989429;28;20053;-65
2022/10/26 08:13:54;;;;;;;31.42;10.82;;;;;;;;;;4991106;28;20050;-65
2022/10/26 08:16:21;;;;;;;30.48;8.50;;;;;;;;;;4991460;28;20092;-65
2022/10/26 08:18:48;;;;;;;31.90;9.73;;;;;;;;;;4988620;28;20058;-64
2022/10/26 08:21:14;;;;;;;30.50;9.52;;;;;;;;;;4988393;28;20070;-68
2022/10/26 08:23:40;;;;;;;32.55;8.50;;;;;;;;;;4988417;28;20101;-67
2022/10/26 08:26:10;;;;;;;26.15;9.38;;;;;;;;;;4988400;28;20517;-66
2022/10/26 08:28:36;;;;;;;27.17;8.68;;;;;;;;;;4987492;28;20047;-65
2022/10/26 08:31:02;;;;;;;29.35;10.73;;;;;;;;;;4988991;28;20159;-63
2022/10/26 08:33:29;;;;;;;31.67;9.45;;;;;;;;;;4988644;28;20050;-65
2022/10/26 08:36:00;;;;;;;68.22;12.18;;;;;;;;;;4970225;28;20100;-65
2022/10/26 08:38:27;;;;;;;43.10;9.95;;;;;;;;;;4988830;28;20143;-64
2022/10/26 08:40:55;;;;;;;35.55;9.13;;;;;;;;;;4987369;28;20050;-64
2022/10/26 08:43:45;;;;;;;30.38;9.13;;;;;;;;;;4988471;28;20097;-64
2022/10/26 08:46:46;;;;;;;37.85;10.60;;;;;;;;;;4988305;28;20133;-64
2022/10/26 08:49:23;;;;;;;42.38;9.35;;;;;;;;;;4909996;29;20055;-68
2022/10/26 08:51:53;;;;;;;30.83;8.88;;;;;;;;;;4909689;29;20052;-65
2022/10/26 08:54:39;;;;;;;34.03;9.48;;;;;;;;;;4910900;29;20048;-64
2022/10/26 08:57:17;;;;;;;34.67;9.93;;;;;;;;;;4908542;29;20577;-64
2022/10/26 09:00:03;;;;;;;37.08;9.57;;;;;;;;;;4906323;29;20067;-66
2022/10/26 09:02:30;;;;;;;37.10;9.55;;;;;;;;;;4905897;29;20072;-67
2022/10/26 09:05:00;;;;;;;50.85;21.83;;;;;;;;;;4907580;29;20445;-65
2022/10/26 09:07:39;;;;;;;34.67;10.23;;;;;;;;;;4908500;29;20126;-69
2022/10/26 09:10:26;;;;;;;28.80;8.38;;;;;;;;;;4906535;29;20040;-64
2022/10/26 09:13:04;;;;;;;19.75;7.75;;;;;;;;;;4908375;29;20055;-68
2022/10/26 09:15:53;;;;;;;33.38;8.93;;;;;;;;;;4906425;29;20403;-65
2022/10/26 09:18:25;;;;;;;32.10;8.60;;;;;;;;;;4907391;29;20040;-66
2022/10/26 09:21:11;;;;;;;38.65;8.27;;;;;;;;;;4908849;29;20541;-65
2022/10/26 09:24:00;;;;;;;39.35;8.60;;;;;;;;;;4962657;28;20048;-68
2022/10/26 09:26:47;;;;;;;27.85;7.55;;;;;;;;;;4988692;28;20090;-64
2022/10/26 09:29:13;;;;;;;36.60;7.63;;;;;;;;;;4989643;28;20054;-70
2022/10/26 09:31:42;;;;;;;28.27;7.45;;;;;;;;;;4986732;28;20062;-64
2022/10/26 09:34:18;;;;;;;25.33;7.15;;;;;;;;;;4989872;28;20047;-65
2022/10/26 09:36:44;;;;;;;35.72;7.32;;;;;;;;;;4978988;28;20496;-64
2022/10/26 09:39:38;;;;;;;35.60;7.93;;;;;;;;;;4986994;28;20073;-72
2022/10/26 09:42:15;;;;;;;33.65;6.60;;;;;;;;;;4987232;28;20049;-64
2022/10/26 09:44:55;;;;;;;17.90;5.57;;;;;;;;;;4986648;28;20548;-63
2022/10/26 09:47:30;;;;;;;27.50;5.88;;;;;;;;;;4986827;28;20448;-64
2022/10/26 09:50:04;;;;;;;24.40;5.78;;;;;;;;;;4989293;28;20046;-64
2022/10/26 09:52:29;;;;;;;18.53;5.73;;;;;;;;;;4988398;28;20061;-66
2022/10/26 09:54:55;;;;;;;21.15;5.35;;;;;;;;;;4989153;28;20741;-67
2022/10/26 09:57:22;;;;;;;28.65;5.75;;;;;;;;;;4988966;28;20078;-66
2022/10/26 09:59:49;;;;;;;18.95;4.90;;;;;;;;;;4986600;28;20056;-64
2022/10/26 10:02:34;;;;;;;27.10;5.68;;;;;;;;;;4985874;28;20408;-66
2022/10/26 10:05:01;;;;;;;28.75;4.45;;;;;;;;;;4980362;28;20042;-64
2022/10/26 10:07:27;;;;;;;16.63;5.13;;;;;;;;;;4983978;28;20042;-65
2022/10/26 10:10:15;;;;;;;24.10;5.28;;;;;;;;;;4968947;28;20069;-65
2022/10/26 10:12:42;;;;;;;22.38;4.97;;;;;;;;;;4983136;28;20479;-65
2022/10/26 10:15:24;;;;;;;22.35;5.00;;;;;;;;;;4988207;28;20527;-71
2022/10/26 10:17:52;;;;;;;22.60;5.32;;;;;;;;;;4987014;28;20053;-66
2022/10/26 10:20:22;;;;;;;22.70;4.72;;;;;;;;;;4981297;28;20046;-64
2022/10/26 10:22:56;;;;;;;20.17;4.72;;;;;;;;;;4985844;28;20049;-64
2022/10/26 10:25:37;;;;;;;28.10;5.07;;;;;;;;;;4981289;28;20153;-65
2022/10/26 10:28:23;;;;;;;26.65;4.68;;;;;;;;;;4987771;28;20050;-65
2022/10/26 10:30:58;;;;;;;20.60;5.32;;;;;;;;;;4986124;28;20507;-65
2022/10/26 10:33:40;;;;;;;29.75;5.85;;;;;;;;;;4986291;28;20524;-66
2022/10/26 10:36:10;;;;;;;21.13;4.90;;;;;;;;;;4985273;28;20504;-67
2022/10/26 10:38:42;;;;;;;26.75;6.10;;;;;;;;;;4986520;28;20046;-65
2022/10/26 10:41:19;;;;;;;25.55;5.70;;;;;;;;;;4986116;28;20539;-65
2022/10/26 10:43:48;;;;;;;28.75;5.97;;;;;;;;;;4985957;28;20492;-64
2022/10/26 10:46:24;;;;;;;25.85;6.68;;;;;;;;;;4987826;28;20323;-66
2022/10/26 10:49:24;;;;;;;27.15;6.63;;;;;;;;;;4990282;28;20038;-69
2022/10/26 10:51:50;;;;;;;27.35;6.07;;;;;;;;;;4989370;28;20051;-64
2022/10/26 10:54:46;;;;;;;30.42;5.75;;;;;;;;;;4985513;28;20057;-66
2022/10/26 10:57:31;;;;;;;20.00;5.63;;;;;;;;;;4984396;28;20050;-66
2022/10/26 11:00:04;;;;;;;;;;;;;;;;;;4980228;28;20065;-64
2022/10/26 11:02:59;;;;;;;18.48;5.22;;;;;;;;;;4980310;28;20379;-63
2022/10/26 11:05:48;;;;;;;31.92;5.88;;;;;;;;;;4981921;28;20579;-64
2022/10/26 11:08:24;;;;;;;23.40;5.75;;;;;;;;;;4971706;28;20046;-64
2022/10/26 11:10:58;;;;;;;29.27;6.03;;;;;;;;;;4981083;28;20122;-63
2022/10/26 11:13:34;;;;;;;;;;;;;;;;;;4984237;28;20050;-64
2022/10/26 11:16:12;;;;;;;24.13;5.57;;;;;;;;;;4987644;28;20017;-65
2022/10/26 11:18:53;;;;;;;26.30;5.53;;;;;;;;;;4989463;28;20547;-65
2022/10/26 11:21:27;;;;;;;22.60;6.18;;;;;;;;;;4982598;28;20050;-66
2022/10/26 11:24:14;;;;;;;20.77;6.25;;;;;;;;;;4985320;28;20050;-64
2022/10/26 11:27:03;;;;;;;26.55;6.32;;;;;;;;;;4987688;28;20042;-63
2022/10/26 11:29:38;;;;;;;31.25;6.60;;;;;;;;;;4985723;28;20493;-65
2022/10/26 11:32:27;;;;;;;17.92;5.43;;;;;;;;;;4984456;28;20191;-64
2022/10/26 11:35:03;;;;;;;23.00;6.28;;;;;;;;;;4989129;28;20073;-64
2022/10/26 11:37:44;;;;;;;23.63;6.63;;;;;;;;;;4980832;28;20086;-65
2022/10/26 11:40:34;;;;;;;23.80;6.45;;;;;;;;;;4981888;28;20054;-64
2022/10/26 11:43:10;;;;;;;20.90;8.10;;;;;;;;;;4980453;28;20078;-65
2022/10/26 11:46:01;;;;;;;26.85;8.15;;;;;;;;;;4979830;28;20140;-65
2022/10/26 11:48:40;;;;;;;22.58;7.65;;;;;;;;;;4983170;28;20074;-65
2022/10/26 11:51:15;;;;;;;38.40;8.02;;;;;;;;;;4978458;28;20055;-64
2022/10/26 11:53:44;;;;;;;33.97;9.32;;;;;;;;;;4984993;28;20058;-64
2022/10/26 11:56:20;;;;;;;21.90;7.25;;;;;;;;;;4984731;28;20058;-64
2022/10/26 11:58:46;;;;;;;30.15;7.50;;;;;;;;;;4983130;28;20461;-65
2022/10/26 12:01:14;;;;;;;29.45;8.02;;;;;;;;;;4987976;28;20129;-66
2022/10/26 12:03:48;;;;;;;41.95;8.77;;;;;;;;;;4974636;28;20058;-65
2022/10/26 12:06:23;;;;;;;28.45;7.03;;;;;;;;;;4985735;28;20050;-72
2022/10/26 12:08:59;;;;;;;21.90;7.05;;;;;;;;;;4985606;28;20038;-65
2022/10/26 12:11:36;;;;;;;30.95;7.60;;;;;;;;;;4988121;28;20085;-67
2022/10/26 12:14:06;;;;;;;26.13;7.22;;;;;;;;;;4986795;28;20042;-66
2022/10/26 12:17:08;;;;;;;36.00;7.70;;;;;;;;;;4983896;28;20069;-64
2022/10/26 12:19:42;;;;;;;31.63;7.30;;;;;;;;;;4983348;28;20046;-63
2022/10/26 12:22:12;;;;;;;22.15;7.60;;;;;;;;;;4983509;28;20086;-65
2022/10/26 12:24:46;;;;;;;23.50;7.50;;;;;;;;;;4983005;28;20038;-67
2022/10/26 12:27:47;;;;;;;25.50;7.38;;;;;;;;;;4964571;28;20320;-67
2022/10/26 12:30:31;;;;;;;19.20;7.25;;;;;;;;;;4990715;28;20531;-67
2022/10/26 12:33:04;;;;;;;27.13;6.97;;;;;;;;;;4987917;28;20058;-68
2022/10/26 12:35:37;;;;;;;28.35;7.68;;;;;;;;;;4986910;28;20058;-67
2022/10/26 12:38:22;;;;;;;21.60;6.55;;;;;;;;;;4988835;28;20476;-64
2022/10/26 12:41:13;;;;;;;27.83;6.93;;;;;;;;;;4968424;28;20108;-66
2022/10/26 12:43:40;;;;;;;24.63;7.45;;;;;;;;;;4982146;28;20060;-67
2022/10/26 12:46:12;;;;;;;20.38;6.18;;;;;;;;;;4979846;28;20046;-68
2022/10/26 12:48:48;;;;;;;21.25;6.80;;;;;;;;;;4983343;28;20484;-67
2022/10/26 12:51:37;;;;;;;19.30;6.63;;;;;;;;;;4985357;28;20054;-67
2022/10/26 12:54:03;;;;;;;18.83;6.38;;;;;;;;;;4986174;28;20091;-68
2022/10/26 12:56:56;;;;;;;21.25;6.53;;;;;;;;;;4985787;28;20069;-66
2022/10/26 12:59:34;;;;;;;21.70;6.35;;;;;;;;;;4974424;28;20093;-65
2022/10/26 13:02:36;;;;;;;21.60;6.57;;;;;;;;;;4990327;28;20049;-64
2022/10/26 13:05:21;;;;;;;16.67;6.50;;;;;;;;;;4984838;28;20555;-67
2022/10/26 13:07:48;;;;;;;15.80;6.30;;;;;;;;;;4957307;28;20046;-64
2022/10/26 13:10:21;;;;;;;20.65;5.88;;;;;;;;;;4982387;28;20052;-65
2022/10/26 13:12:52;;;;;;;30.75;6.07;;;;;;;;;;4986570;28;20038;-64
2022/10/26 13:15:20;;;;;;;20.67;6.50;;;;;;;;;;4983262;28;20463;-66
2022/10/26 13:18:19;;;;;;;22.75;6.68;;;;;;;;;;4987765;28;20046;-67
2022/10/26 13:20:55;;;;;;;19.02;6.43;;;;;;;;;;4986226;28;20046;-68
2022/10/26 13:23:26;;;;;;;20.77;6.20;;;;;;;;;;4985485;28;20057;-68
2022/10/26 13:26:11;;;;;;;14.18;5.32;;;;;;;;;;4987171;28;20523;-65
2022/10/26 13:28:37;;;;;;;31.85;6.60;;;;;;;;;;4984358;28;20412;-65
2022/10/26 13:31:10;;;;;;;23.27;6.00;;;;;;;;;;4969954;28;20184;-65
2022/10/26 13:33:40;;;;;;;19.70;5.50;;;;;;;;;;4985027;28;20042;-66
2022/10/26 13:36:35;;;;;;;24.35;5.78;;;;;;;;;;4985587;28;20069;-65
2022/10/26 13:39:22;;;;;;;18.67;6.60;;;;;;;;;;4959288;28;20096;-65
2022/10/26 13:41:52;;;;;;;20.40;5.90;;;;;;;;;;4983381;28;20038;-65
2022/10/26 13:44:29;;;;;;;17.50;6.05;;;;;;;;;;4986313;28;20042;-66
2022/10/26 13:47:01;;;;;;;18.92;5.72;;;;;;;;;;4979359;28;20070;-64
2022/10/26 13:49:32;;;;;;;23.95;5.93;;;;;;;;;;4984527;28;20038;-65
2022/10/26 13:52:01;;;;;;;22.00;5.68;;;;;;;;;;4992867;28;20078;-66
2022/10/26 13:54:35;;;;;;;19.23;5.78;;;;;;;;;;4987939;28;20082;-66
2022/10/26 13:57:13;;;;;;;;;;;;;;;;;;4987588;28;20053;-65
2022/10/26 13:59:43;;;;;;;19.42;5.25;;;;;;;;;;4984364;28;19928;-65
2022/10/26 14:02:17;;;;;;;18.05;5.35;;;;;;;;;;4986308;28;20128;-68
2022/10/26 14:04:50;;;;;;;24.00;5.70;;;;;;;;;;4983123;28;20448;-66
2022/10/26 14:07:29;;;;;;;29.75;6.05;;;;;;;;;;4981187;28;20050;-65
2022/10/26 14:09:56;;;;;;;21.83;6.10;;;;;;;;;;4987175;28;20042;-66
2022/10/26 14:12:24;;;;;;;20.73;5.47;;;;;;;;;;4986373;28;20101;-68
2022/10/26 14:14:52;;;;;;;26.90;5.85;;;;;;;;;;4985398;28;20038;-64
2022/10/26 14:17:24;;;;;;;22.65;6.15;;;;;;;;;;4983782;28;20050;-65
2022/10/26 14:19:51;;;;;;;27.55;5.93;;;;;;;;;;4983912;28;20149;-68
2022/10/26 14:22:22;;;;;;;18.70;5.57;;;;;;;;;;4985065;28;20125;-64
2022/10/26 14:24:54;;;;;;;20.20;5.97;;;;;;;;;;4991114;28;20082;-68
2022/10/26 14:27:22;;;;;;;23.17;5.97;;;;;;;;;;4984738;28;20081;-64
2022/10/26 14:29:51;;;;;;;27.33;5.68;;;;;;;;;;4969753;28;20049;-64
2022/10/26 14:32:22;;;;;;;25.92;6.32;;;;;;;;;;4972083;28;20073;-66
2022/10/26 14:34:48;;;;;;;19.15;5.35;;;;;;;;;;4975052;28;20126;-68
2022/10/26 14:37:42;;;;;;;26.77;6.50;;;;;;;;;;4984607;28;20125;-64
2022/10/26 14:40:20;;;;;;;21.20;5.80;;;;;;;;;;4957033;28;20054;-65
2022/10/26 14:42:51;;;;;;;27.00;6.82;;;;;;;;;;4975316;28;20126;-65
2022/10/26 14:45:32;;;;;;;25.15;7.07;;;;;;;;;;4976930;28;20483;-64
2022/10/26 14:48:00;;;;;;;25.65;6.57;;;;;;;;;;4970875;28;20604;-65
2022/10/26 14:50:30;;;;;;;25.02;6.70;;;;;;;;;;4978180;28;20619;-65
2022/10/26 14:53:00;;;;;;;20.25;6.50;;;;;;;;;;4967571;28;20043;-67
2022/10/26 14:55:27;;;;;;;17.88;6.07;;;;;;;;;;4972429;28;20043;-70
2022/10/26 14:58:06;;;;;;;19.25;6.47;;;;;;;;;;4963301;28;20122;-64